createdAt,value
2019-03-21T00:01:05.565Z,11.57
2019-03-21T00:02:05.179Z,11.55
2019-03-21T00:03:05.193Z,11.51
2019-03-21T00:04:05.486Z,11.54
2019-03-21T00:05:05.428Z,11.52
2019-03-21T00:06:05.226Z,11.52
2019-03-21T00:07:05.251Z,11.52
2019-03-21T00:08:05.264Z,11.54
2019-03-21T00:09:05.265Z,11.52
2019-03-21T00:10:05.276Z,11.52
2019-03-21T00:11:05.299Z,11.49
2019-03-21T00:12:05.340Z,11.49
2019-03-21T00:13:05.347Z,11.47
2019-03-21T00:14:07.196Z,11.52
2019-03-21T00:15:05.355Z,11.47
2019-03-21T00:16:05.371Z,11.51
2019-03-21T00:19:05.696Z,11.49
2019-03-21T00:20:05.420Z,11.51
2019-03-21T00:21:05.431Z,11.51
2019-03-21T00:22:05.449Z,11.49
2019-03-21T00:24:05.668Z,11.60
2019-03-21T00:25:05.473Z,11.51
2019-03-21T00:26:05.489Z,11.52
2019-03-21T00:27:05.492Z,11.52
2019-03-21T00:28:05.505Z,11.51
2019-03-21T00:29:05.522Z,11.46
2019-03-21T00:30:05.551Z,11.47
2019-03-21T00:31:05.755Z,11.40
2019-03-21T00:32:05.564Z,11.49
2019-03-21T00:34:05.593Z,11.51
2019-03-21T00:35:05.624Z,11.44
2019-03-21T00:36:05.621Z,11.44
2019-03-21T00:37:05.626Z,11.47
2019-03-21T00:38:05.642Z,11.40
2019-03-21T00:39:05.651Z,11.49
2019-03-21T00:40:05.672Z,11.42
2019-03-21T00:41:05.701Z,11.39
2019-03-21T00:42:05.713Z,11.42
2019-03-21T00:43:05.727Z,11.46
2019-03-21T00:44:05.718Z,11.47
2019-03-21T00:45:05.746Z,11.47
2019-03-21T00:46:05.764Z,11.39
2019-03-21T00:47:05.782Z,11.44
2019-03-21T00:48:05.769Z,11.40
2019-03-21T00:49:05.789Z,11.43
2019-03-21T00:50:05.799Z,11.40
2019-03-21T00:51:05.819Z,11.42
2019-03-21T00:52:06.076Z,11.39
2019-03-21T00:53:05.846Z,11.44
2019-03-21T00:54:05.871Z,11.42
2019-03-21T00:55:05.870Z,11.46
2019-03-21T00:56:05.885Z,11.39
2019-03-21T00:57:05.888Z,11.42
2019-03-21T00:58:05.908Z,11.40
2019-03-21T00:59:05.915Z,11.44
2019-03-21T01:00:05.927Z,11.46
2019-03-21T01:01:05.955Z,11.42
2019-03-21T01:02:05.963Z,11.42
2019-03-21T01:03:05.979Z,11.40
2019-03-21T01:04:06.880Z,11.49
2019-03-21T01:05:06.070Z,11.49
2019-03-21T01:06:06.228Z,11.42
2019-03-21T01:07:06.021Z,11.43
2019-03-21T01:08:06.034Z,11.40
2019-03-21T01:09:06.322Z,11.44
2019-03-21T01:10:06.073Z,11.44
2019-03-21T01:11:06.773Z,11.43
2019-03-21T01:12:06.091Z,11.39
2019-03-21T01:13:06.098Z,11.44
2019-03-21T01:15:06.830Z,11.42
2019-03-21T01:16:06.139Z,11.44
2019-03-21T01:17:06.159Z,11.42
2019-03-21T01:18:06.179Z,11.27
2019-03-21T01:19:06.191Z,11.32
2019-03-21T01:20:06.206Z,11.32
2019-03-21T01:21:06.209Z,11.29
2019-03-21T01:22:06.227Z,11.32
2019-03-21T01:23:06.241Z,11.33
2019-03-21T01:24:06.263Z,11.35
2019-03-21T01:25:06.279Z,11.33
2019-03-21T01:26:06.276Z,11.29
2019-03-21T01:27:06.490Z,11.32
2019-03-21T01:28:06.300Z,11.33
2019-03-21T01:29:06.318Z,11.35
2019-03-21T01:30:06.322Z,11.35
2019-03-21T01:31:06.360Z,11.27
2019-03-21T01:32:06.359Z,11.29
2019-03-21T01:33:06.577Z,11.35
2019-03-21T01:34:06.375Z,11.27
2019-03-21T01:35:06.400Z,11.28
2019-03-21T01:36:06.401Z,11.22
2019-03-21T01:37:06.413Z,11.19
2019-03-21T01:38:06.427Z,11.40
2019-03-21T01:39:06.740Z,11.32
2019-03-21T01:40:06.453Z,11.32
2019-03-21T01:41:06.471Z,11.35
2019-03-21T01:42:06.493Z,11.32
2019-03-21T01:43:06.500Z,11.28
2019-03-21T01:44:06.506Z,11.35
2019-03-21T01:45:06.547Z,11.32
2019-03-21T01:46:06.533Z,11.29
2019-03-21T01:47:06.554Z,11.33
2019-03-21T01:48:06.555Z,11.36
2019-03-21T01:49:06.572Z,11.32
2019-03-21T01:50:06.597Z,11.37
2019-03-21T01:51:06.595Z,11.32
2019-03-21T01:52:06.627Z,11.29
2019-03-21T01:53:06.620Z,11.33
2019-03-21T01:54:06.652Z,11.35
2019-03-21T01:55:06.649Z,11.33
2019-03-21T01:56:06.659Z,11.32
2019-03-21T01:57:06.677Z,11.33
2019-03-21T01:58:06.688Z,11.27
2019-03-21T01:59:06.708Z,11.32
2019-03-21T02:00:06.733Z,11.32
2019-03-21T02:01:08.732Z,11.37
2019-03-21T02:02:06.742Z,11.33
2019-03-21T02:03:06.762Z,11.29
2019-03-21T02:04:06.970Z,11.25
2019-03-21T02:05:06.779Z,11.24
2019-03-21T02:07:06.830Z,11.17
2019-03-21T02:08:07.120Z,11.17
2019-03-21T02:09:06.832Z,11.10
2019-03-21T02:10:06.843Z,11.14
2019-03-21T02:11:06.872Z,11.19
2019-03-21T02:12:06.869Z,11.15
2019-03-21T02:13:06.902Z,11.21
2019-03-21T02:14:06.897Z,11.17
2019-03-21T02:15:07.211Z,11.19
2019-03-21T02:16:06.924Z,11.15
2019-03-21T02:17:06.939Z,11.22
2019-03-21T02:18:06.948Z,11.29
2019-03-21T02:19:06.963Z,11.24
2019-03-21T02:20:06.977Z,11.28
2019-03-21T02:21:07.017Z,11.25
2019-03-21T02:22:07.003Z,11.21
2019-03-21T02:23:07.030Z,11.27
2019-03-21T02:24:07.035Z,11.17
2019-03-21T02:25:07.257Z,11.17
2019-03-21T02:26:07.063Z,11.21
2019-03-21T02:27:07.066Z,11.17
2019-03-21T02:28:07.079Z,11.22
2019-03-21T02:29:07.125Z,11.25
2019-03-21T02:30:07.111Z,11.25
2019-03-21T02:31:07.125Z,11.24
2019-03-21T02:32:07.134Z,11.25
2019-03-21T02:33:07.168Z,11.24
2019-03-21T02:34:07.164Z,11.29
2019-03-21T02:35:07.180Z,11.32
2019-03-21T02:36:07.183Z,11.22
2019-03-21T02:37:07.199Z,11.22
2019-03-21T02:38:07.209Z,11.21
2019-03-21T02:40:07.239Z,11.24
2019-03-21T02:41:07.256Z,11.18
2019-03-21T02:42:07.263Z,11.09
2019-03-21T02:43:07.298Z,11.11
2019-03-21T02:44:07.497Z,11.10
2019-03-21T02:45:09.313Z,11.03
2019-03-21T02:46:07.322Z,11.11
2019-03-21T02:47:07.328Z,11.09
2019-03-21T02:48:07.342Z,11.10
2019-03-21T02:49:07.353Z,11.07
2019-03-21T02:50:07.375Z,11.07
2019-03-21T02:51:07.387Z,11.02
2019-03-21T02:52:07.415Z,11.07
2019-03-21T02:53:07.406Z,11.07
2019-03-21T02:54:07.421Z,11.07
2019-03-21T02:55:07.441Z,11.15
2019-03-21T02:56:07.447Z,11.10
2019-03-21T02:57:07.461Z,11.11
2019-03-21T02:58:07.474Z,11.07
2019-03-21T02:59:07.502Z,11.22
2019-03-21T03:00:07.508Z,11.14
2019-03-21T03:01:07.516Z,11.11
2019-03-21T03:02:07.531Z,11.11
2019-03-21T03:03:07.545Z,11.09
2019-03-21T03:04:07.554Z,11.07
2019-03-21T03:05:07.572Z,11.14
2019-03-21T03:06:07.576Z,11.03
2019-03-21T03:07:07.598Z,11.07
2019-03-21T03:08:07.621Z,11.03
2019-03-21T03:09:07.611Z,11.07
2019-03-21T03:10:07.634Z,11.07
2019-03-21T03:11:10.591Z,11.10
2019-03-21T03:12:07.659Z,11.14
2019-03-21T03:13:07.664Z,11.14
2019-03-21T03:14:07.683Z,11.10
2019-03-21T03:15:21.490Z,11.09
2019-03-21T03:16:07.998Z,11.07
2019-03-21T03:17:07.717Z,11.09
2019-03-21T03:18:07.735Z,11.07
2019-03-21T03:19:07.759Z,11.06
2019-03-21T03:20:07.758Z,11.03
2019-03-21T03:21:07.785Z,11.06
2019-03-21T03:22:07.989Z,11.11
2019-03-21T03:23:07.798Z,11.11
2019-03-21T03:24:07.810Z,11.00
2019-03-21T03:25:07.855Z,10.96
2019-03-21T03:26:07.834Z,11.04
2019-03-21T03:27:07.851Z,11.00
2019-03-21T03:28:08.154Z,11.07
2019-03-21T03:30:07.915Z,11.00
2019-03-21T03:31:07.913Z,11.02
2019-03-21T03:32:07.929Z,10.91
2019-03-21T03:34:07.938Z,10.94
2019-03-21T03:36:08.175Z,10.94
2019-03-21T03:37:07.987Z,10.99
2019-03-21T03:38:08.001Z,10.94
2019-03-21T03:39:08.018Z,11.02
2019-03-21T03:40:08.017Z,11.06
2019-03-21T03:41:08.030Z,10.97
2019-03-21T03:42:08.083Z,11.04
2019-03-21T03:43:08.070Z,10.91
2019-03-21T03:44:08.084Z,10.97
2019-03-21T03:45:08.283Z,11.00
2019-03-21T03:46:08.085Z,11.03
2019-03-21T03:47:08.323Z,10.96
2019-03-21T03:48:08.112Z,11.04
2019-03-21T03:49:08.150Z,10.99
2019-03-21T03:50:08.136Z,10.92
2019-03-21T03:51:08.150Z,10.94
2019-03-21T03:52:08.161Z,11.00
2019-03-21T03:53:08.173Z,10.96
2019-03-21T03:54:08.187Z,10.96
2019-03-21T03:55:08.218Z,10.92
2019-03-21T03:56:08.227Z,10.96
2019-03-21T03:57:08.246Z,10.86
2019-03-21T03:58:08.252Z,10.84
2019-03-21T03:59:08.257Z,10.82
2019-03-21T04:01:08.279Z,10.85
2019-03-21T04:02:08.293Z,10.84
2019-03-21T04:03:08.306Z,10.84
2019-03-21T04:04:08.346Z,10.79
2019-03-21T04:06:08.565Z,10.81
2019-03-21T04:07:08.363Z,10.81
2019-03-21T04:08:08.391Z,10.78
2019-03-21T04:10:08.394Z,10.86
2019-03-21T04:12:08.425Z,10.73
2019-03-21T04:13:08.432Z,10.68
2019-03-21T04:15:08.492Z,10.81
2019-03-21T04:16:08.476Z,10.73
2019-03-21T04:17:08.487Z,10.76
2019-03-21T04:18:08.494Z,10.73
2019-03-21T04:19:08.518Z,10.70
2019-03-21T04:20:08.547Z,10.67
2019-03-21T04:21:08.534Z,10.64
2019-03-21T04:22:08.557Z,10.71
2019-03-21T04:23:08.558Z,10.74
2019-03-21T04:24:08.606Z,10.67
2019-03-21T04:25:08.587Z,10.64
2019-03-21T04:26:08.632Z,10.66
2019-03-21T04:27:09.017Z,10.71
2019-03-21T04:28:08.647Z,10.68
2019-03-21T04:30:08.662Z,10.64
2019-03-21T04:32:08.678Z,10.73
2019-03-21T04:33:08.706Z,10.68
2019-03-21T04:34:08.715Z,10.78
2019-03-21T04:35:08.924Z,10.74
2019-03-21T04:36:08.937Z,10.61
2019-03-21T04:37:08.741Z,10.67
2019-03-21T04:38:08.765Z,10.60
2019-03-21T04:39:08.788Z,10.61
2019-03-21T04:40:08.991Z,10.64
2019-03-21T04:41:09.428Z,10.63
2019-03-21T04:44:08.828Z,10.63
2019-03-21T04:45:08.849Z,10.71
2019-03-21T04:46:09.067Z,10.66
2019-03-21T04:48:08.898Z,10.61
2019-03-21T04:49:08.916Z,10.76
2019-03-21T04:50:08.925Z,10.78
2019-03-21T04:51:09.134Z,10.79
2019-03-21T04:52:08.949Z,10.70
2019-03-21T04:53:09.575Z,10.70
2019-03-21T04:54:09.470Z,10.76
2019-03-21T04:55:08.991Z,10.74
2019-03-21T04:56:08.993Z,10.67
2019-03-21T04:57:09.001Z,10.66
2019-03-21T04:58:09.007Z,10.60
2019-03-21T05:00:09.072Z,10.71
2019-03-21T05:03:09.103Z,10.63
2019-03-21T05:05:09.131Z,10.70
2019-03-21T05:06:09.132Z,10.59
2019-03-21T05:07:09.363Z,10.55
2019-03-21T05:08:10.174Z,10.52
2019-03-21T05:09:09.170Z,10.59
2019-03-21T05:10:09.196Z,10.45
2019-03-21T05:11:09.205Z,10.51
2019-03-21T05:14:09.644Z,10.47
2019-03-21T05:15:09.258Z,10.47
2019-03-21T05:16:14.794Z,10.48
2019-03-21T05:17:09.285Z,10.48
2019-03-21T05:20:09.313Z,10.56
2019-03-21T05:21:09.524Z,10.51
2019-03-21T05:23:09.941Z,10.51
2019-03-21T05:24:09.372Z,10.55
2019-03-21T05:25:09.378Z,10.47
2019-03-21T05:26:09.576Z,10.47
2019-03-21T05:27:09.397Z,10.45
2019-03-21T05:28:09.415Z,10.48
2019-03-21T05:29:09.423Z,10.53
2019-03-21T05:31:10.141Z,10.48
2019-03-21T05:32:09.458Z,10.51
2019-03-21T05:33:09.884Z,10.52
2019-03-21T05:34:09.975Z,10.48
2019-03-21T05:39:09.548Z,10.44
2019-03-21T05:40:09.564Z,10.38
2019-03-21T05:41:09.859Z,10.47
2019-03-21T05:42:10.279Z,10.40
2019-03-21T05:43:10.199Z,10.41
2019-03-21T05:44:09.819Z,10.41
2019-03-21T05:45:09.613Z,10.47
2019-03-21T05:47:09.646Z,10.38
2019-03-21T05:49:09.664Z,10.42
2019-03-21T05:51:10.194Z,10.45
2019-03-21T05:53:10.394Z,10.44
2019-03-21T05:54:10.330Z,10.48
2019-03-21T05:55:09.765Z,10.42
2019-03-21T05:57:09.769Z,10.47
2019-03-21T05:58:09.778Z,10.45
2019-03-21T05:59:09.791Z,10.45
2019-03-21T06:00:09.799Z,10.48
2019-03-21T06:01:09.817Z,10.47
2019-03-21T06:02:10.042Z,10.45
2019-03-21T06:03:09.859Z,10.47
2019-03-21T06:04:10.565Z,10.48
2019-03-21T06:05:09.861Z,10.48
2019-03-21T06:06:09.894Z,10.53
2019-03-21T06:07:09.897Z,10.48
2019-03-21T06:08:09.919Z,10.41
2019-03-21T06:09:09.935Z,10.42
2019-03-21T06:11:09.959Z,10.41
2019-03-21T06:12:09.953Z,10.36
2019-03-21T06:13:09.982Z,10.34
2019-03-21T06:14:10.180Z,10.40
2019-03-21T06:15:10.021Z,10.44
2019-03-21T06:16:10.013Z,10.42
2019-03-21T06:17:10.031Z,10.38
2019-03-21T06:18:10.645Z,10.45
2019-03-21T06:19:10.459Z,10.41
2019-03-21T06:20:10.065Z,10.47
2019-03-21T06:23:10.100Z,10.48
2019-03-21T06:24:10.317Z,10.41
2019-03-21T06:25:10.155Z,10.44
2019-03-21T06:26:10.137Z,10.45
2019-03-21T06:27:14.775Z,10.40
2019-03-21T06:28:10.385Z,10.38
2019-03-21T06:29:10.883Z,10.36
2019-03-21T06:30:10.464Z,10.33
2019-03-21T06:32:12.870Z,10.32
2019-03-21T06:33:10.645Z,10.34
2019-03-21T06:34:10.919Z,10.32
2019-03-21T06:35:10.270Z,10.32
2019-03-21T06:39:10.309Z,10.26
2019-03-21T06:40:10.317Z,10.29
2019-03-21T06:42:10.352Z,10.25
2019-03-21T06:43:10.753Z,10.27
2019-03-21T06:45:10.372Z,10.23
2019-03-21T06:47:10.697Z,10.26
2019-03-21T06:48:11.027Z,10.33
2019-03-21T06:49:11.247Z,10.34
2019-03-21T06:50:10.458Z,10.42
2019-03-21T06:51:10.449Z,10.42
2019-03-21T06:52:10.542Z,10.53
2019-03-21T06:53:10.482Z,10.61
2019-03-21T06:55:11.005Z,10.68
2019-03-21T06:56:11.230Z,10.73
2019-03-21T06:57:11.030Z,10.78
2019-03-21T07:00:11.175Z,10.78
2019-03-21T07:01:10.634Z,10.74
2019-03-21T07:03:11.312Z,10.68
2019-03-21T07:04:10.632Z,10.71
2019-03-21T07:06:10.866Z,10.59
2019-03-21T07:07:11.576Z,10.64
2019-03-21T07:08:10.687Z,10.60
2019-03-21T07:09:10.906Z,10.71
2019-03-21T07:10:11.525Z,10.73
2019-03-21T07:11:10.718Z,10.70
2019-03-21T07:14:10.978Z,10.67
2019-03-21T07:15:10.777Z,10.60
2019-03-21T07:16:10.796Z,10.56
2019-03-21T07:17:10.810Z,10.61
2019-03-21T07:20:11.543Z,10.67
2019-03-21T07:21:10.871Z,10.76
2019-03-21T07:22:12.391Z,10.74
2019-03-21T07:23:11.576Z,10.73
2019-03-21T07:25:10.887Z,10.78
2019-03-21T07:26:10.904Z,10.73
2019-03-21T07:27:11.147Z,10.76
2019-03-21T07:28:10.936Z,10.81
2019-03-21T07:29:10.953Z,10.86
2019-03-21T07:31:11.440Z,10.85
2019-03-21T07:32:11.592Z,10.85
2019-03-21T07:33:11.193Z,10.94
2019-03-21T07:34:11.032Z,11.02
2019-03-21T07:35:11.226Z,11.03
2019-03-21T07:36:11.531Z,11.09
2019-03-21T07:37:11.272Z,11.06
2019-03-21T07:38:11.059Z,11.06
2019-03-21T07:39:11.350Z,11.07
2019-03-21T07:40:11.100Z,11.09
2019-03-21T07:41:11.099Z,11.19
2019-03-21T07:43:11.141Z,11.22
2019-03-21T07:44:11.357Z,11.11
2019-03-21T07:45:11.454Z,11.22
2019-03-21T07:46:11.570Z,11.19
2019-03-21T07:47:13.233Z,11.21
2019-03-21T07:48:11.197Z,11.17
2019-03-21T07:52:11.235Z,11.29
2019-03-21T07:53:11.482Z,11.27
2019-03-21T07:54:11.269Z,11.35
2019-03-21T07:55:11.781Z,11.39
2019-03-21T07:56:11.693Z,11.51
2019-03-21T07:58:11.335Z,11.54
2019-03-21T07:59:11.332Z,11.51
2019-03-21T08:01:11.370Z,11.43
2019-03-21T08:02:11.379Z,11.40
2019-03-21T08:03:11.590Z,11.44
2019-03-21T08:04:11.416Z,11.54
2019-03-21T08:05:11.425Z,11.46
2019-03-21T08:06:11.426Z,11.54
2019-03-21T08:07:11.450Z,11.58
2019-03-21T08:09:11.470Z,11.57
2019-03-21T08:11:11.990Z,11.58
2019-03-21T08:12:11.786Z,11.67
2019-03-21T08:13:11.519Z,11.69
2019-03-21T08:14:11.526Z,11.79
2019-03-21T08:15:11.546Z,11.76
2019-03-21T08:16:11.964Z,11.90
2019-03-21T08:17:11.765Z,12.01
2019-03-21T08:19:11.601Z,12.01
2019-03-21T08:20:11.615Z,11.94
2019-03-21T08:21:11.635Z,11.98
2019-03-21T08:22:11.849Z,12.02
2019-03-21T08:23:11.649Z,12.05
2019-03-21T08:24:12.386Z,12.13
2019-03-21T08:26:11.735Z,12.12
2019-03-21T08:27:12.181Z,12.10
2019-03-21T08:28:11.723Z,12.12
2019-03-21T08:30:11.962Z,12.07
2019-03-21T08:31:11.976Z,12.19
2019-03-21T08:32:12.947Z,12.17
2019-03-21T08:33:11.792Z,12.28
2019-03-21T08:34:11.812Z,12.24
2019-03-21T08:35:12.325Z,12.31
2019-03-21T08:37:11.843Z,12.23
2019-03-21T08:38:11.856Z,12.32
2019-03-21T08:39:11.870Z,12.29
2019-03-21T08:40:12.081Z,12.27
2019-03-21T08:41:12.312Z,12.29
2019-03-21T08:42:11.914Z,12.28
2019-03-21T08:43:11.920Z,12.45
2019-03-21T08:44:11.941Z,12.53
2019-03-21T08:45:12.371Z,12.45
2019-03-21T08:47:12.275Z,12.47
2019-03-21T08:48:11.999Z,12.60
2019-03-21T08:50:13.116Z,12.57
2019-03-21T08:51:12.222Z,12.56
2019-03-21T08:52:12.233Z,12.60
2019-03-21T08:53:12.058Z,12.62
2019-03-21T08:54:12.487Z,12.70
2019-03-21T08:55:12.298Z,12.68
2019-03-21T08:56:12.113Z,12.72
2019-03-21T08:57:12.099Z,12.75
2019-03-21T08:58:12.414Z,12.74
2019-03-21T08:59:12.136Z,12.77
2019-03-21T09:00:12.355Z,12.77
2019-03-21T09:01:12.164Z,12.74
2019-03-21T09:02:12.191Z,12.83
2019-03-21T09:03:12.175Z,13.01
2019-03-21T09:04:12.393Z,13.05
2019-03-21T09:05:12.203Z,13.04
2019-03-21T09:06:12.522Z,13.14
2019-03-21T09:07:12.257Z,13.19
2019-03-21T09:08:12.244Z,13.23
2019-03-21T09:09:12.256Z,13.36
2019-03-21T09:10:12.272Z,13.29
2019-03-21T09:11:12.295Z,13.42
2019-03-21T09:12:12.310Z,13.49
2019-03-21T09:13:12.343Z,13.51
2019-03-21T09:14:12.328Z,13.55
2019-03-21T09:15:12.339Z,13.59
2019-03-21T09:16:12.355Z,13.71
2019-03-21T09:17:12.390Z,13.67
2019-03-21T09:18:12.379Z,13.73
2019-03-21T09:19:12.394Z,13.75
2019-03-21T09:20:12.430Z,13.70
2019-03-21T09:21:19.639Z,13.60
2019-03-21T09:22:12.452Z,13.60
2019-03-21T09:23:12.467Z,13.67
2019-03-21T09:24:12.493Z,13.73
2019-03-21T09:25:12.764Z,13.84
2019-03-21T09:26:12.584Z,13.82
2019-03-21T09:27:12.517Z,13.89
2019-03-21T09:28:14.136Z,13.91
2019-03-21T09:29:13.128Z,13.91
2019-03-21T09:30:12.545Z,13.78
2019-03-21T09:31:12.563Z,13.89
2019-03-21T09:32:12.598Z,13.85
2019-03-21T09:33:12.599Z,13.91
2019-03-21T09:34:12.604Z,14.04
2019-03-21T09:35:12.630Z,14.06
2019-03-21T09:36:12.629Z,14.06
2019-03-21T09:37:12.646Z,14.15
2019-03-21T09:38:12.666Z,14.12
2019-03-21T09:39:13.198Z,14.20
2019-03-21T09:40:12.711Z,14.15
2019-03-21T09:41:12.698Z,14.03
2019-03-21T09:42:12.716Z,14.03
2019-03-21T09:43:12.749Z,14.02
2019-03-21T09:44:12.753Z,13.97
2019-03-21T09:45:12.759Z,14.06
2019-03-21T09:46:12.796Z,14.03
2019-03-21T09:47:12.800Z,14.12
2019-03-21T09:48:13.033Z,14.17
2019-03-21T09:49:12.871Z,14.12
2019-03-21T09:52:12.874Z,14.29
2019-03-21T09:53:12.891Z,14.29
2019-03-21T09:55:12.926Z,14.28
2019-03-21T09:57:12.951Z,14.35
2019-03-21T10:00:12.993Z,14.55
2019-03-21T10:01:13.004Z,14.54
2019-03-21T10:02:13.415Z,14.60
2019-03-21T10:03:13.224Z,14.55
2019-03-21T10:04:13.026Z,14.57
2019-03-21T10:05:13.338Z,14.62
2019-03-21T10:06:13.353Z,14.65
2019-03-21T10:07:13.082Z,14.60
2019-03-21T10:08:13.292Z,14.62
2019-03-21T10:09:13.105Z,14.61
2019-03-21T10:10:13.313Z,14.70
2019-03-21T10:11:13.117Z,14.78
2019-03-21T10:12:13.344Z,14.68
2019-03-21T10:13:13.154Z,14.78
2019-03-21T10:14:13.183Z,14.75
2019-03-21T10:15:13.200Z,14.88
2019-03-21T10:16:13.193Z,14.96
2019-03-21T10:18:13.224Z,14.94
2019-03-21T10:19:13.233Z,15.02
2019-03-21T10:20:13.244Z,15.02
2019-03-21T10:21:13.475Z,15.10
2019-03-21T10:23:13.640Z,15.35
2019-03-21T10:24:13.311Z,15.34
2019-03-21T10:25:13.337Z,15.50
2019-03-21T10:26:13.343Z,15.49
2019-03-21T10:27:13.346Z,15.50
2019-03-21T10:28:13.348Z,15.47
2019-03-21T10:29:13.373Z,15.51
2019-03-21T10:30:13.389Z,15.50
2019-03-21T10:31:13.407Z,15.34
2019-03-21T10:32:14.484Z,15.36
2019-03-21T10:33:13.427Z,15.25
2019-03-21T10:34:13.441Z,15.20
2019-03-21T10:35:13.459Z,15.17
2019-03-21T10:36:15.930Z,15.32
2019-03-21T10:37:13.475Z,15.29
2019-03-21T10:38:13.503Z,15.28
2019-03-21T10:39:13.725Z,15.36
2019-03-21T10:40:13.517Z,15.21
2019-03-21T10:41:13.542Z,15.20
2019-03-21T10:42:14.174Z,15.23
2019-03-21T10:43:13.580Z,15.19
2019-03-21T10:44:13.576Z,15.25
2019-03-21T10:45:13.804Z,15.36
2019-03-21T10:46:13.913Z,15.35
2019-03-21T10:47:13.638Z,15.43
2019-03-21T10:48:13.634Z,15.47
2019-03-21T10:49:13.647Z,15.56
2019-03-21T10:50:13.689Z,15.71
2019-03-21T10:51:13.673Z,15.71
2019-03-21T10:52:13.687Z,15.78
2019-03-21T10:53:13.707Z,15.72
2019-03-21T10:54:13.752Z,15.71
2019-03-21T10:55:13.751Z,15.76
2019-03-21T10:56:13.767Z,15.97
2019-03-21T10:57:13.770Z,16.05
2019-03-21T10:58:13.790Z,16.00
2019-03-21T10:59:13.799Z,15.78
2019-03-21T11:00:13.810Z,15.80
2019-03-21T11:01:13.825Z,15.69
2019-03-21T11:02:13.895Z,15.75
2019-03-21T11:03:14.054Z,15.84
2019-03-21T11:04:14.063Z,15.82
2019-03-21T11:05:13.883Z,15.89
2019-03-21T11:06:13.887Z,15.86
2019-03-21T11:07:13.918Z,15.84
2019-03-21T11:08:13.922Z,15.87
2019-03-21T11:09:14.146Z,15.94
2019-03-21T11:10:13.973Z,15.92
2019-03-21T11:12:13.985Z,15.96
2019-03-21T11:13:14.009Z,15.92
2019-03-21T11:14:14.009Z,15.97
2019-03-21T11:15:14.016Z,15.86
2019-03-21T11:16:14.039Z,15.89
2019-03-21T11:17:14.051Z,15.83
2019-03-21T11:18:14.419Z,15.94
2019-03-21T11:19:14.085Z,15.96
2019-03-21T11:20:14.090Z,16.01
2019-03-21T11:21:14.119Z,15.97
2019-03-21T11:22:14.151Z,15.83
2019-03-21T11:23:14.143Z,15.83
2019-03-21T11:24:16.387Z,15.94
2019-03-21T11:25:15.311Z,15.94
2019-03-21T11:26:14.184Z,16.00
2019-03-21T11:28:14.209Z,16.07
2019-03-21T11:29:14.232Z,16.09
2019-03-21T11:31:14.466Z,16.20
2019-03-21T11:32:14.269Z,16.25
2019-03-21T11:33:15.190Z,16.07
2019-03-21T11:34:14.305Z,16.02
2019-03-21T11:35:14.792Z,16.07
2019-03-21T11:37:15.019Z,16.11
2019-03-21T11:38:14.577Z,16.15
2019-03-21T11:40:14.586Z,16.25
2019-03-21T11:41:14.400Z,16.33
2019-03-21T11:42:14.821Z,16.43
2019-03-21T11:43:14.633Z,16.50
2019-03-21T11:46:14.474Z,16.53
2019-03-21T11:47:14.689Z,16.49
2019-03-21T11:48:14.514Z,16.41
2019-03-21T11:49:14.733Z,16.50
2019-03-21T11:50:14.547Z,16.60
2019-03-21T11:51:14.753Z,16.63
2019-03-21T11:52:18.406Z,16.75
2019-03-21T11:53:14.799Z,16.73
2019-03-21T11:54:15.070Z,16.73
2019-03-21T11:55:14.612Z,16.75
2019-03-21T11:56:14.633Z,16.93
2019-03-21T11:57:14.630Z,16.81
2019-03-21T11:58:14.655Z,16.81
2019-03-21T11:59:14.658Z,16.79
2019-03-21T12:00:14.667Z,16.91
2019-03-21T12:01:14.701Z,17.04
2019-03-21T12:02:26.333Z,17.25
2019-03-21T12:03:14.716Z,17.06
2019-03-21T12:04:14.722Z,16.94
2019-03-21T12:05:14.733Z,16.82
2019-03-21T12:06:14.756Z,16.71
2019-03-21T12:07:14.790Z,16.78
2019-03-21T12:08:14.798Z,16.89
2019-03-21T12:09:14.811Z,17.11
2019-03-21T12:10:14.809Z,17.19
2019-03-21T12:11:14.823Z,17.40
2019-03-21T12:12:14.850Z,17.40
2019-03-21T12:13:15.058Z,17.52
2019-03-21T12:14:15.291Z,17.70
2019-03-21T12:15:14.903Z,17.59
2019-03-21T12:16:15.110Z,17.52
2019-03-21T12:17:15.419Z,17.46
2019-03-21T12:18:14.938Z,17.41
2019-03-21T12:20:15.259Z,17.37
2019-03-21T12:21:14.968Z,17.37
2019-03-21T12:22:14.986Z,17.44
2019-03-21T12:23:15.010Z,17.56
2019-03-21T12:24:15.015Z,17.72
2019-03-21T12:25:15.029Z,17.72
2019-03-21T12:26:15.053Z,17.63
2019-03-21T12:27:15.065Z,17.44
2019-03-21T12:28:15.079Z,17.46
2019-03-21T12:29:15.108Z,17.52
2019-03-21T12:30:15.127Z,17.64
2019-03-21T12:31:15.545Z,17.78
2019-03-21T12:36:15.812Z,17.92
2019-03-21T12:38:15.239Z,17.90
2019-03-21T12:41:15.291Z,17.95
2019-03-21T12:42:15.500Z,18.02
2019-03-21T12:43:15.734Z,18.10
2019-03-21T12:45:15.547Z,17.96
2019-03-21T12:47:15.360Z,17.99
2019-03-21T12:48:15.382Z,18.14
2019-03-21T12:49:15.426Z,18.25
2019-03-21T12:50:15.417Z,18.32
2019-03-21T12:51:15.427Z,18.26
2019-03-21T12:53:15.458Z,18.58
2019-03-21T12:54:15.471Z,18.58
2019-03-21T12:56:15.500Z,18.70
2019-03-21T12:57:15.717Z,18.65
2019-03-21T13:00:15.561Z,18.17
2019-03-21T13:02:15.585Z,18.11
2019-03-21T13:03:15.613Z,18.30
2019-03-21T13:04:16.319Z,18.41
2019-03-21T13:06:16.348Z,18.11
2019-03-21T13:07:16.661Z,18.12
2019-03-21T13:08:15.702Z,18.17
2019-03-21T13:09:15.707Z,18.07
2019-03-21T13:10:15.725Z,18.15
2019-03-21T13:11:17.481Z,18.20
2019-03-21T13:12:15.742Z,18.26
2019-03-21T13:15:16.602Z,18.29
2019-03-21T13:16:16.637Z,18.18
2019-03-21T13:17:15.821Z,18.05
2019-03-21T13:18:16.148Z,18.03
2019-03-21T13:19:16.059Z,18.11
2019-03-21T13:20:16.066Z,18.30
2019-03-21T13:21:15.871Z,18.44
2019-03-21T13:22:15.890Z,18.52
2019-03-21T13:23:15.904Z,18.58
2019-03-21T13:24:20.475Z,18.44
2019-03-21T13:25:15.932Z,18.41
2019-03-21T13:26:15.948Z,18.52
2019-03-21T13:27:15.973Z,18.44
2019-03-21T13:28:15.972Z,18.51
2019-03-21T13:29:15.980Z,18.57
2019-03-21T13:30:16.001Z,18.69
2019-03-21T13:31:16.011Z,18.72
2019-03-21T13:32:16.036Z,18.72
2019-03-21T13:33:16.040Z,18.72
2019-03-21T13:34:16.058Z,18.70
2019-03-21T13:35:16.081Z,18.60
2019-03-21T13:36:16.088Z,18.72
2019-03-21T13:37:16.111Z,18.65
2019-03-21T13:38:16.116Z,18.63
2019-03-21T13:39:16.133Z,18.70
2019-03-21T13:40:16.146Z,18.70
2019-03-21T13:41:16.167Z,18.75
2019-03-21T13:42:16.175Z,18.75
2019-03-21T13:43:16.191Z,19.06
2019-03-21T13:44:16.209Z,19.14
2019-03-21T13:45:16.220Z,18.87
2019-03-21T13:46:16.239Z,18.88
2019-03-21T13:47:16.250Z,18.84
2019-03-21T13:48:16.271Z,18.87
2019-03-21T13:49:16.290Z,18.91
2019-03-21T13:50:16.299Z,18.75
2019-03-21T13:51:16.325Z,18.66
2019-03-21T13:52:16.339Z,18.33
2019-03-21T13:53:19.027Z,18.25
2019-03-21T13:54:16.761Z,18.26
2019-03-21T13:55:16.378Z,18.12
2019-03-21T13:56:16.604Z,17.93
2019-03-21T13:57:16.629Z,18.08
2019-03-21T14:02:16.525Z,19.08
2019-03-21T14:03:24.919Z,19.22
2019-03-21T14:04:16.525Z,19.44
2019-03-21T14:05:16.561Z,19.59
2019-03-21T14:30:17.856Z,22.77
2019-03-21T14:32:17.506Z,22.62
2019-03-21T14:58:20.220Z,18.84
2019-03-21T15:05:19.231Z,18.30
2019-03-21T17:16:20.045Z,16.50
2019-03-21T17:22:19.928Z,16.25
2019-03-21T17:23:20.161Z,16.39
2019-03-21T17:24:28.655Z,16.39
2019-03-21T17:25:19.952Z,16.35
2019-03-21T17:26:19.969Z,16.28
2019-03-21T17:27:19.971Z,16.30
2019-03-21T17:28:20.195Z,16.31
2019-03-21T17:29:20.001Z,16.23
2019-03-21T17:30:20.031Z,16.21
2019-03-21T17:31:20.232Z,16.20
2019-03-21T17:32:20.041Z,16.04
2019-03-21T17:33:20.055Z,16.14
2019-03-21T17:41:20.877Z,16.01
2019-03-21T18:27:21.743Z,15.11
2019-03-21T18:55:21.268Z,14.58
2019-03-21T19:02:21.767Z,14.58
2019-03-21T19:03:21.384Z,14.52
2019-03-21T19:04:21.391Z,14.54
2019-03-21T19:05:21.400Z,14.60
2019-03-21T19:06:21.420Z,14.47
2019-03-21T19:07:21.437Z,14.57
2019-03-21T19:08:21.441Z,14.58
2019-03-21T19:09:21.462Z,14.52
2019-03-21T19:10:21.501Z,14.55
2019-03-21T19:11:21.485Z,14.60
2019-03-21T19:12:21.497Z,14.50
2019-03-21T19:13:21.514Z,14.43
2019-03-21T19:14:21.525Z,14.36
2019-03-21T19:15:21.543Z,14.43
2019-03-21T19:16:21.557Z,14.50
2019-03-21T19:17:21.568Z,14.37
2019-03-21T19:18:21.596Z,14.40
2019-03-21T19:19:21.599Z,14.29
2019-03-21T19:20:21.611Z,14.37